createdAt,value
2023-01-04T00:00:31.779Z,7.57
2023-01-04T00:01:31.746Z,7.48
2023-01-04T00:02:31.875Z,7.55
2023-01-04T00:03:31.970Z,7.48
2023-01-04T00:04:31.802Z,7.60
2023-01-04T00:05:31.830Z,7.50
2023-01-04T00:06:31.844Z,7.53
2023-01-04T00:07:31.866Z,7.52
2023-01-04T00:08:31.907Z,7.61
2023-01-04T00:09:31.902Z,7.64
2023-01-04T00:10:31.920Z,7.67
2023-01-04T00:11:31.959Z,7.63
2023-01-04T00:12:31.969Z,7.68
2023-01-04T00:13:31.996Z,7.69
2023-01-04T00:14:32.005Z,7.72
2023-01-04T00:15:32.050Z,7.72
2023-01-04T00:16:32.127Z,7.64
2023-01-04T00:17:32.065Z,7.68
2023-01-04T00:18:32.082Z,7.75
2023-01-04T00:19:32.099Z,7.60
2023-01-04T00:20:32.130Z,7.61
2023-01-04T00:21:32.156Z,7.79
2023-01-04T00:22:39.339Z,7.75
2023-01-04T00:24:36.667Z,7.74
2023-01-04T00:25:36.204Z,7.74
2023-01-04T00:27:40.219Z,7.71
2023-01-04T00:28:40.221Z,7.68
2023-01-04T00:30:46.224Z,7.77
2023-01-04T00:31:44.285Z,7.68
2023-01-04T00:33:48.251Z,7.82
2023-01-04T00:34:48.254Z,7.72
2023-01-04T00:36:52.744Z,7.71
2023-01-04T00:37:52.422Z,7.77
2023-01-04T00:39:56.288Z,7.83
2023-01-04T00:40:56.291Z,7.82
2023-01-04T00:43:01.276Z,7.86
2023-01-04T00:44:00.330Z,7.93
2023-01-04T00:46:04.412Z,7.89
2023-01-04T00:47:04.479Z,7.92
2023-01-04T00:49:08.839Z,7.95
2023-01-04T00:50:08.379Z,7.97
2023-01-04T00:52:12.409Z,8.02
2023-01-04T00:53:12.392Z,8.00
2023-01-04T00:55:17.381Z,7.97
2023-01-04T00:56:16.900Z,7.98
2023-01-04T00:57:16.919Z,8.07
2023-01-04T00:58:16.939Z,8.05
2023-01-04T00:59:16.997Z,8.02
2023-01-04T01:00:16.978Z,8.08
2023-01-04T01:01:17.102Z,8.07
2023-01-04T01:02:17.204Z,8.07
2023-01-04T01:03:17.262Z,8.08
2023-01-04T01:04:17.227Z,8.12
2023-01-04T01:05:17.086Z,8.15
2023-01-04T01:06:17.103Z,8.19
2023-01-04T01:07:17.121Z,8.11
2023-01-04T01:08:17.140Z,8.25
2023-01-04T01:09:17.172Z,8.22
2023-01-04T01:10:17.182Z,8.22
2023-01-04T01:11:17.220Z,8.33
2023-01-04T01:12:17.225Z,8.34
2023-01-04T01:13:17.240Z,8.30
2023-01-04T01:14:17.261Z,8.29
2023-01-04T01:15:17.283Z,8.30
2023-01-04T01:16:18.975Z,8.44
2023-01-04T01:17:17.370Z,8.44
2023-01-04T01:18:17.347Z,8.43
2023-01-04T01:19:17.369Z,8.44
2023-01-04T01:20:17.383Z,8.44
2023-01-04T01:21:17.414Z,8.53
2023-01-04T01:22:17.431Z,8.47
2023-01-04T01:23:17.446Z,8.50
2023-01-04T01:24:17.479Z,8.56
2023-01-04T01:25:17.486Z,8.47
2023-01-04T01:26:17.509Z,8.62
2023-01-04T01:27:17.531Z,8.62
2023-01-04T01:28:17.564Z,8.53
2023-01-04T01:29:17.580Z,8.65
2023-01-04T01:30:17.587Z,8.68
2023-01-04T01:31:17.672Z,8.55
2023-01-04T01:32:17.658Z,8.70
2023-01-04T01:33:17.648Z,8.70
2023-01-04T01:34:17.685Z,8.73
2023-01-04T01:35:17.697Z,8.73
2023-01-04T01:36:17.717Z,8.66
2023-01-04T01:37:17.752Z,8.68
2023-01-04T01:38:17.788Z,8.68
2023-01-04T01:39:17.789Z,8.71
2023-01-04T01:40:17.799Z,8.74
2023-01-04T01:41:17.815Z,8.79
2023-01-04T01:42:17.838Z,8.91
2023-01-04T01:43:17.859Z,8.87
2023-01-04T01:44:17.928Z,8.95
2023-01-04T01:45:17.898Z,8.94
2023-01-04T01:46:17.967Z,9.01
2023-01-04T01:47:17.940Z,8.95
2023-01-04T01:48:17.961Z,9.08
2023-01-04T01:49:17.978Z,9.04
2023-01-04T01:50:18.008Z,9.01
2023-01-04T01:51:18.022Z,9.04
2023-01-04T01:52:18.044Z,9.10
2023-01-04T01:53:18.068Z,9.08
2023-01-04T01:54:18.089Z,9.17
2023-01-04T01:55:18.108Z,9.15
2023-01-04T01:56:18.135Z,9.15
2023-01-04T01:57:18.159Z,9.17
2023-01-04T01:58:18.180Z,9.17
2023-01-04T01:59:18.201Z,9.24
2023-01-04T02:00:18.209Z,9.20
2023-01-04T02:01:18.334Z,9.28
2023-01-04T02:02:18.507Z,9.23
2023-01-04T02:03:18.427Z,9.33
2023-01-04T02:04:18.294Z,9.28
2023-01-04T02:05:18.321Z,9.21
2023-01-04T02:06:18.346Z,9.29
2023-01-04T02:07:18.359Z,9.29
2023-01-04T02:08:18.377Z,9.29
2023-01-04T02:09:18.411Z,9.29
2023-01-04T02:10:18.424Z,9.26
2023-01-04T02:11:18.436Z,9.28
2023-01-04T02:12:18.459Z,9.33
2023-01-04T02:13:18.485Z,9.28
2023-01-04T02:14:18.505Z,9.24
2023-01-04T02:15:18.568Z,9.26
2023-01-04T02:16:18.615Z,9.23
2023-01-04T02:17:18.563Z,9.24
2023-01-04T02:18:18.587Z,9.21
2023-01-04T02:19:18.603Z,9.15
2023-01-04T02:20:18.640Z,9.21
2023-01-04T02:21:18.646Z,9.29
2023-01-04T02:22:18.668Z,9.20
2023-01-04T02:23:18.688Z,9.21
2023-01-04T02:24:18.715Z,9.23
2023-01-04T02:25:18.735Z,9.15
2023-01-04T02:26:18.757Z,9.15
2023-01-04T02:27:18.773Z,9.15
2023-01-04T02:28:18.807Z,9.14
2023-01-04T02:29:18.828Z,9.14
2023-01-04T02:30:18.840Z,9.14
2023-01-04T02:31:18.925Z,9.13
2023-01-04T02:32:18.914Z,9.15
2023-01-04T02:33:18.953Z,9.10
2023-01-04T02:34:18.922Z,9.17
2023-01-04T02:35:18.940Z,9.14
2023-01-04T02:36:18.965Z,9.11
2023-01-04T02:37:18.980Z,9.04
2023-01-04T02:38:19.007Z,9.05
2023-01-04T02:39:19.026Z,9.08
2023-01-04T02:40:19.062Z,9.02
2023-01-04T02:41:19.068Z,9.04
2023-01-04T02:42:19.088Z,9.02
2023-01-04T02:43:19.109Z,9.04
2023-01-04T02:44:19.133Z,8.99
2023-01-04T02:45:19.150Z,9.08
2023-01-04T02:46:19.266Z,9.08
2023-01-04T02:47:19.215Z,9.05
2023-01-04T02:48:19.222Z,9.05
2023-01-04T02:49:19.238Z,9.13
2023-01-04T02:50:19.252Z,9.11
2023-01-04T02:51:19.275Z,9.10
2023-01-04T02:52:19.316Z,9.05
2023-01-04T02:53:19.324Z,9.10
2023-01-04T02:54:19.340Z,9.08
2023-01-04T02:55:19.358Z,9.10
2023-01-04T02:56:19.380Z,9.05
2023-01-04T02:57:19.400Z,9.08
2023-01-04T02:58:19.427Z,9.10
2023-01-04T02:59:19.443Z,9.02
2023-01-04T03:00:19.471Z,9.04
2023-01-04T03:01:19.586Z,9.10
2023-01-04T03:02:19.654Z,9.05
2023-01-04T03:03:19.722Z,9.01
2023-01-04T03:04:19.550Z,9.08
2023-01-04T03:05:19.570Z,9.04
2023-01-04T03:06:19.593Z,9.05
2023-01-04T03:07:19.612Z,9.02
2023-01-04T03:08:19.637Z,8.99
2023-01-04T03:09:19.689Z,8.95
2023-01-04T03:10:19.678Z,8.96
2023-01-04T03:11:19.704Z,9.02
2023-01-04T03:12:19.715Z,9.05
2023-01-04T03:13:19.741Z,9.05
2023-01-04T03:14:31.770Z,8.98
2023-01-04T03:15:19.777Z,9.04
2023-01-04T03:16:19.868Z,8.96
2023-01-04T03:17:19.818Z,9.05
2023-01-04T03:18:19.843Z,9.04
2023-01-04T03:19:19.872Z,9.01
2023-01-04T03:20:19.888Z,9.05
2023-01-04T03:21:19.902Z,9.02
2023-01-04T03:22:19.923Z,8.99
2023-01-04T03:23:19.950Z,9.10
2023-01-04T03:24:19.986Z,9.13
2023-01-04T03:25:19.998Z,9.17
2023-01-04T03:26:20.023Z,9.17
2023-01-04T03:27:20.038Z,9.14
2023-01-04T03:28:20.079Z,9.14
2023-01-04T03:29:20.072Z,9.11
2023-01-04T03:30:20.093Z,9.11
2023-01-04T03:31:20.172Z,9.13
2023-01-04T03:32:20.134Z,9.20
2023-01-04T03:33:20.162Z,9.20
2023-01-04T03:34:20.181Z,9.26
2023-01-04T03:35:20.205Z,9.24
2023-01-04T03:36:20.221Z,9.29
2023-01-04T03:37:20.262Z,9.28
2023-01-04T03:38:20.260Z,9.32
2023-01-04T03:39:20.301Z,9.39
2023-01-04T03:40:20.304Z,9.31
2023-01-04T03:41:20.344Z,9.32
2023-01-04T03:42:20.353Z,9.33
2023-01-04T03:43:20.376Z,9.38
2023-01-04T03:44:20.427Z,9.32
2023-01-04T03:45:20.408Z,9.40
2023-01-04T03:46:20.490Z,9.38
2023-01-04T03:47:20.448Z,9.38
2023-01-04T03:48:20.470Z,9.50
2023-01-04T03:49:20.498Z,9.42
2023-01-04T03:50:20.516Z,9.43
2023-01-04T03:51:20.536Z,9.47
2023-01-04T03:52:20.567Z,9.48
2023-01-04T03:53:20.580Z,9.48
2023-01-04T03:54:20.597Z,9.51
2023-01-04T03:55:20.649Z,9.51
2023-01-04T03:56:20.640Z,9.51
2023-01-04T03:57:20.688Z,9.53
2023-01-04T03:58:20.686Z,9.54
2023-01-04T03:59:20.730Z,9.51
2023-01-04T04:00:20.732Z,9.48
2023-01-04T04:01:21.025Z,9.50
2023-01-04T04:02:20.826Z,9.48
2023-01-04T04:03:20.786Z,9.53
2023-01-04T04:04:20.899Z,9.51
2023-01-04T04:05:20.830Z,9.58
2023-01-04T04:06:20.870Z,9.51
2023-01-04T04:07:20.927Z,9.51
2023-01-04T04:08:20.895Z,9.53
2023-01-04T04:09:20.919Z,9.65
2023-01-04T04:10:20.954Z,9.69
2023-01-04T04:11:20.960Z,9.65
2023-01-04T04:12:20.978Z,9.60
2023-01-04T04:13:20.997Z,9.65
2023-01-04T04:14:21.021Z,9.64
2023-01-04T04:15:21.037Z,9.57
2023-01-04T04:16:21.112Z,9.66
2023-01-04T04:17:21.089Z,9.69
2023-01-04T04:18:21.106Z,9.68
2023-01-04T04:19:21.125Z,9.69
2023-01-04T04:20:21.143Z,9.65
2023-01-04T04:21:21.174Z,9.68
2023-01-04T04:22:21.187Z,9.76
2023-01-04T04:23:21.226Z,9.76
2023-01-04T04:24:21.232Z,9.78
2023-01-04T04:25:21.251Z,9.81
2023-01-04T04:26:21.284Z,9.79
2023-01-04T04:27:21.293Z,9.79
2023-01-04T04:28:21.318Z,9.83
2023-01-04T04:29:21.347Z,9.79
2023-01-04T04:30:21.358Z,9.78
2023-01-04T04:31:21.415Z,9.76
2023-01-04T04:32:21.404Z,9.84
2023-01-04T04:33:21.429Z,9.89
2023-01-04T04:34:21.440Z,9.81
2023-01-04T04:35:21.470Z,9.91
2023-01-04T04:36:21.495Z,9.89
2023-01-04T04:37:21.509Z,9.86
2023-01-04T04:38:21.534Z,9.89
2023-01-04T04:39:21.552Z,9.93
2023-01-04T04:40:21.572Z,9.93
2023-01-04T04:41:21.594Z,9.90
2023-01-04T04:42:21.612Z,9.89
2023-01-04T04:43:21.632Z,9.87
2023-01-04T04:44:21.661Z,9.94
2023-01-04T04:45:21.678Z,9.90
2023-01-04T04:46:21.770Z,9.94
2023-01-04T04:47:21.723Z,9.96
2023-01-04T04:48:21.743Z,9.93
2023-01-04T04:49:21.761Z,9.94
2023-01-04T04:50:21.785Z,9.96
2023-01-04T04:51:21.809Z,9.93
2023-01-04T04:52:21.824Z,9.89
2023-01-04T04:53:21.848Z,9.94
2023-01-04T04:54:21.882Z,9.93
2023-01-04T04:55:21.895Z,9.93
2023-01-04T04:56:21.917Z,9.87
2023-01-04T04:57:21.932Z,9.94
2023-01-04T04:58:21.957Z,9.89
2023-01-04T04:59:21.977Z,9.94
2023-01-04T05:00:21.998Z,9.93
2023-01-04T05:01:22.161Z,9.91
2023-01-04T05:02:22.319Z,9.93
2023-01-04T05:03:22.092Z,9.96
2023-01-04T05:04:22.086Z,9.97
2023-01-04T05:05:22.104Z,9.99
2023-01-04T05:06:22.123Z,9.94
2023-01-04T05:07:22.164Z,10.01
2023-01-04T05:08:22.169Z,9.96
2023-01-04T05:09:22.191Z,9.96
2023-01-04T05:10:22.209Z,9.96
2023-01-04T05:11:22.235Z,10.08
2023-01-04T05:12:22.251Z,9.96
2023-01-04T05:13:22.271Z,10.04
2023-01-04T05:14:22.299Z,10.04
2023-01-04T05:15:22.320Z,10.05
2023-01-04T05:16:22.435Z,10.07
2023-01-04T05:17:22.364Z,10.01
2023-01-04T05:18:22.462Z,10.02
2023-01-04T05:19:22.419Z,10.15
2023-01-04T05:20:22.426Z,9.96
2023-01-04T05:21:22.443Z,10.04
2023-01-04T05:22:22.470Z,10.04
2023-01-04T05:23:22.677Z,10.07
2023-01-04T05:24:22.508Z,10.09
2023-01-04T05:25:22.539Z,10.01
2023-01-04T05:26:22.560Z,10.04
2023-01-04T05:27:22.647Z,10.05
2023-01-04T05:28:22.710Z,9.94
2023-01-04T05:29:22.618Z,10.09
2023-01-04T05:30:22.637Z,10.09
2023-01-04T05:31:22.689Z,10.12
2023-01-04T05:32:22.683Z,10.05
2023-01-04T05:33:22.802Z,10.09
2023-01-04T05:34:22.722Z,10.09
2023-01-04T05:35:22.759Z,10.12
2023-01-04T05:36:22.768Z,10.09
2023-01-04T05:37:22.783Z,10.07
2023-01-04T05:38:22.810Z,10.08
2023-01-04T05:39:22.829Z,10.09
2023-01-04T05:40:22.852Z,10.22
2023-01-04T05:41:22.868Z,10.20
2023-01-04T05:42:22.893Z,10.20
2023-01-04T05:43:22.923Z,10.23
2023-01-04T05:44:22.938Z,10.17
2023-01-04T05:45:22.958Z,10.23
2023-01-04T05:46:23.052Z,10.27
2023-01-04T05:47:22.999Z,10.25
2023-01-04T05:48:23.023Z,10.23
2023-01-04T05:49:23.044Z,10.17
2023-01-04T05:50:23.084Z,10.18
2023-01-04T05:51:23.085Z,10.27
2023-01-04T05:52:23.119Z,10.26
2023-01-04T05:53:23.308Z,10.23
2023-01-04T05:54:23.148Z,10.27
2023-01-04T05:55:23.171Z,10.27
2023-01-04T05:56:23.191Z,10.26
2023-01-04T05:57:23.220Z,10.27
2023-01-04T05:58:23.235Z,10.33
2023-01-04T05:59:23.261Z,10.30
2023-01-04T06:00:23.283Z,10.33
2023-01-04T06:01:23.361Z,10.27
2023-01-04T06:02:23.492Z,10.26
2023-01-04T06:03:23.477Z,10.33
2023-01-04T06:04:23.367Z,10.27
2023-01-04T06:05:23.391Z,10.25
2023-01-04T06:06:23.406Z,10.29
2023-01-04T06:07:23.440Z,10.30
2023-01-04T06:08:23.454Z,10.29
2023-01-04T06:09:23.475Z,10.29
2023-01-04T06:10:23.494Z,10.34
2023-01-04T06:11:27.574Z,10.30
2023-01-04T06:12:23.543Z,10.33
2023-01-04T06:13:23.648Z,10.32
2023-01-04T06:14:23.582Z,10.36
2023-01-04T06:15:23.604Z,10.30
2023-01-04T06:16:23.701Z,10.30
2023-01-04T06:17:23.648Z,10.34
2023-01-04T06:18:23.701Z,10.27
2023-01-04T06:19:23.704Z,10.32
2023-01-04T06:20:23.707Z,10.29
2023-01-04T06:21:23.731Z,10.33
2023-01-04T06:22:23.895Z,10.27
2023-01-04T06:23:23.775Z,10.27
2023-01-04T06:24:23.801Z,10.30
2023-01-04T06:25:23.813Z,10.30
2023-01-04T06:26:23.839Z,10.32
2023-01-04T06:27:23.860Z,10.27
2023-01-04T06:28:23.891Z,10.30
2023-01-04T06:29:23.903Z,10.27
2023-01-04T06:30:23.921Z,10.29
2023-01-04T06:31:24.064Z,10.34
2023-01-04T06:32:23.962Z,10.34
2023-01-04T06:33:23.988Z,10.30
2023-01-04T06:34:30.226Z,10.30
2023-01-04T06:35:24.030Z,10.29
2023-01-04T06:36:24.049Z,10.29
2023-01-04T06:37:24.082Z,10.30
2023-01-04T06:38:24.103Z,10.33
2023-01-04T06:39:24.124Z,10.29
2023-01-04T06:40:24.148Z,10.32
2023-01-04T06:41:24.161Z,10.30
2023-01-04T06:42:24.186Z,10.27
2023-01-04T06:43:24.204Z,10.32
2023-01-04T06:44:24.227Z,10.29
2023-01-04T06:45:24.254Z,10.30
2023-01-04T06:46:24.400Z,10.29
2023-01-04T06:47:24.292Z,10.30
2023-01-04T06:48:24.310Z,10.29
2023-01-04T06:49:24.336Z,10.30
2023-01-04T06:50:24.353Z,10.33
2023-01-04T06:51:24.379Z,10.30
2023-01-04T06:52:24.396Z,10.29
2023-01-04T06:53:24.417Z,10.32
2023-01-04T06:54:24.442Z,10.25
2023-01-04T06:55:24.470Z,10.26
2023-01-04T06:56:24.491Z,10.29
2023-01-04T06:57:24.509Z,10.26
2023-01-04T06:58:24.541Z,10.29
2023-01-04T06:59:24.554Z,10.29
2023-01-04T07:00:24.574Z,10.25
2023-01-04T07:01:24.702Z,10.34
2023-01-04T07:02:24.811Z,10.36
2023-01-04T07:03:24.644Z,10.36
2023-01-04T07:04:24.791Z,10.38
2023-01-04T07:05:24.675Z,10.27
2023-01-04T07:06:24.709Z,10.32
2023-01-04T07:07:24.724Z,10.32
2023-01-04T07:08:24.748Z,10.34
2023-01-04T07:09:24.765Z,10.32
2023-01-04T07:10:24.796Z,10.36
2023-01-04T07:11:24.817Z,10.42
2023-01-04T07:12:24.834Z,10.45
2023-01-04T07:13:24.856Z,10.40
2023-01-04T07:14:24.879Z,10.38
2023-01-04T07:15:38.090Z,10.38
2023-01-04T07:16:24.979Z,10.40
2023-01-04T07:17:32.116Z,10.40
2023-01-04T07:19:29.433Z,10.34
2023-01-04T07:20:29.114Z,10.44
2023-01-04T07:22:32.990Z,10.41
2023-01-04T07:23:32.997Z,10.44
2023-01-04T07:25:37.496Z,10.47
2023-01-04T07:26:37.031Z,10.47
2023-01-04T07:28:41.029Z,10.40
2023-01-04T07:29:41.050Z,10.44
2023-01-04T07:31:35.165Z,10.41
2023-01-04T07:32:34.480Z,10.36
2023-01-04T07:33:34.526Z,10.40
2023-01-04T07:34:34.523Z,10.47
2023-01-04T07:35:34.541Z,10.40
2023-01-04T07:36:34.562Z,10.41
2023-01-04T07:37:34.586Z,10.48
2023-01-04T07:38:34.610Z,10.40
2023-01-04T07:39:34.631Z,10.48
2023-01-04T07:40:34.650Z,10.44
2023-01-04T07:41:34.692Z,10.42
2023-01-04T07:42:34.694Z,10.42
2023-01-04T07:43:34.716Z,10.40
2023-01-04T07:44:34.733Z,10.41
2023-01-04T07:45:34.756Z,10.42
2023-01-04T07:46:34.818Z,10.41
2023-01-04T07:47:34.810Z,10.41
2023-01-04T07:48:34.823Z,10.45
2023-01-04T07:49:34.842Z,10.48
2023-01-04T07:50:34.893Z,10.41
2023-01-04T07:51:34.891Z,10.52
2023-01-04T07:52:34.909Z,10.41
2023-01-04T07:53:34.941Z,10.48
2023-01-04T07:54:34.962Z,10.52
2023-01-04T07:55:34.976Z,10.47
2023-01-04T07:56:34.995Z,10.40
2023-01-04T07:57:35.033Z,10.47
2023-01-04T07:58:35.045Z,10.44
2023-01-04T07:59:35.065Z,10.44
2023-01-04T08:00:35.110Z,10.47
2023-01-04T08:01:35.202Z,10.48
2023-01-04T08:02:35.266Z,10.48
2023-01-04T08:03:35.149Z,10.47
2023-01-04T08:04:35.649Z,10.47
2023-01-04T08:05:35.204Z,10.48
2023-01-04T08:06:35.258Z,10.52
2023-01-04T08:07:35.233Z,10.48
2023-01-04T08:08:35.257Z,10.53
2023-01-04T08:09:35.280Z,10.48
2023-01-04T08:10:35.300Z,10.51
2023-01-04T08:11:35.328Z,10.60
2023-01-04T08:12:35.345Z,10.59
2023-01-04T08:13:35.368Z,10.53
2023-01-04T08:14:35.394Z,10.48
2023-01-04T08:15:35.463Z,10.51
2023-01-04T08:16:35.455Z,10.59
2023-01-04T08:17:35.466Z,10.53
2023-01-04T08:18:35.494Z,10.59
2023-01-04T08:19:35.499Z,10.53
2023-01-04T08:20:35.554Z,10.61
2023-01-04T08:21:35.543Z,10.59
2023-01-04T08:22:35.566Z,10.67
2023-01-04T08:23:35.586Z,10.59
2023-01-04T08:24:35.609Z,10.51
2023-01-04T08:25:35.623Z,10.59
2023-01-04T08:26:35.652Z,10.61
2023-01-04T08:27:35.702Z,10.60
2023-01-04T08:28:35.696Z,10.55
2023-01-04T08:29:35.809Z,10.64
2023-01-04T08:30:35.735Z,10.61
2023-01-04T08:31:35.785Z,10.61
2023-01-04T08:32:35.774Z,10.67
2023-01-04T08:33:35.797Z,10.73
2023-01-04T08:34:35.825Z,10.73
2023-01-04T08:35:35.844Z,10.84
2023-01-04T08:36:35.874Z,10.71
2023-01-04T08:37:35.898Z,10.78
2023-01-04T08:39:02.484Z,10.74
2023-01-04T08:39:35.938Z,10.74
2023-01-04T08:40:59.913Z,10.73
2023-01-04T08:42:35.997Z,10.76
2023-01-04T08:43:36.022Z,10.84
2023-01-04T08:44:36.036Z,10.78
2023-01-04T08:45:36.060Z,10.78
2023-01-04T08:46:36.149Z,10.85
2023-01-04T08:47:36.103Z,10.88
2023-01-04T08:48:36.131Z,10.82
2023-01-04T08:49:36.166Z,10.89
2023-01-04T08:50:36.170Z,10.92
2023-01-04T08:51:36.197Z,10.92
2023-01-04T08:52:36.220Z,10.89
2023-01-04T08:53:36.247Z,10.88
2023-01-04T08:54:36.275Z,10.84
2023-01-04T08:55:36.280Z,10.94
2023-01-04T08:56:36.302Z,10.97
2023-01-04T08:57:36.331Z,11.00
2023-01-04T08:58:36.352Z,11.00
2023-01-04T08:59:36.371Z,10.97
2023-01-04T09:00:36.396Z,10.99
2023-01-04T09:01:36.512Z,11.03
2023-01-04T09:02:36.691Z,10.99
2023-01-04T09:03:36.459Z,11.03
2023-01-04T09:04:36.533Z,10.92
2023-01-04T09:05:36.515Z,11.03
2023-01-04T09:06:36.526Z,10.97
2023-01-04T09:07:36.544Z,10.99
2023-01-04T09:08:36.639Z,11.00
2023-01-04T09:09:36.625Z,11.07
2023-01-04T09:10:36.653Z,11.03
2023-01-04T09:11:36.630Z,11.03
2023-01-04T09:12:36.659Z,11.03
2023-01-04T09:13:36.674Z,10.99
2023-01-04T09:14:36.709Z,10.97
2023-01-04T09:15:36.717Z,10.94
2023-01-04T09:16:36.955Z,11.03
2023-01-04T09:17:46.506Z,11.10
2023-01-04T09:18:36.786Z,11.06
2023-01-04T09:19:36.819Z,11.06
2023-01-04T09:20:36.825Z,11.07
2023-01-04T09:21:36.905Z,11.09
2023-01-04T09:22:36.873Z,11.07
2023-01-04T09:23:36.907Z,11.04
2023-01-04T09:24:36.920Z,11.06
2023-01-04T09:25:36.942Z,10.99
2023-01-04T09:26:36.965Z,11.00
2023-01-04T09:27:36.982Z,11.07
2023-01-04T09:28:37.021Z,11.15
2023-01-04T09:29:37.033Z,11.17
2023-01-04T09:30:37.052Z,11.14
2023-01-04T09:31:37.145Z,11.11
2023-01-04T09:32:37.098Z,11.10
2023-01-04T09:34:12.071Z,11.15
2023-01-04T09:34:37.149Z,11.15
2023-01-04T09:35:37.163Z,11.22
2023-01-04T09:36:37.187Z,11.24
2023-01-04T09:37:37.209Z,11.19
2023-01-04T09:38:37.224Z,11.21
2023-01-04T09:39:37.259Z,11.21
2023-01-04T09:40:37.278Z,11.22
2023-01-04T09:41:37.295Z,11.21
2023-01-04T09:42:37.834Z,11.27
2023-01-04T09:43:37.342Z,11.27
2023-01-04T09:45:21.167Z,11.28
2023-01-04T09:45:37.381Z,11.25
2023-01-04T09:46:37.489Z,11.27
2023-01-04T09:47:37.428Z,11.22
2023-01-04T09:48:37.456Z,11.22
2023-01-04T09:49:37.468Z,11.35
2023-01-04T09:50:37.492Z,11.33
2023-01-04T09:51:37.525Z,11.24
2023-01-04T09:52:37.537Z,11.27
2023-01-04T09:53:37.558Z,11.25
2023-01-04T09:54:37.599Z,11.21
2023-01-04T09:55:40.739Z,11.21
2023-01-04T09:56:37.625Z,11.27
2023-01-04T09:57:37.649Z,11.24
2023-01-04T09:58:37.682Z,11.39
2023-01-04T09:59:37.691Z,11.28
2023-01-04T10:00:43.527Z,11.36
2023-01-04T10:01:38.002Z,11.33
2023-01-04T10:02:37.939Z,11.37
2023-01-04T10:03:37.825Z,11.28
2023-01-04T10:04:37.811Z,11.32
2023-01-04T10:05:37.841Z,11.35
2023-01-04T10:06:37.844Z,11.35
2023-01-04T10:07:37.885Z,11.37
2023-01-04T10:08:37.894Z,11.36
2023-01-04T10:09:37.917Z,11.35
2023-01-04T10:10:37.947Z,11.36
2023-01-04T10:11:37.965Z,11.40
2023-01-04T10:12:37.982Z,11.40
2023-01-04T10:13:38.023Z,11.37
2023-01-04T10:14:38.036Z,11.39
2023-01-04T10:15:38.049Z,11.40
2023-01-04T10:17:10.818Z,11.32
2023-01-04T10:18:57.496Z,11.37
2023-01-04T10:21:38.244Z,11.44
2023-01-04T10:22:38.212Z,11.42
2023-01-04T10:23:38.233Z,11.42
2023-01-04T10:24:38.247Z,11.47
2023-01-04T10:25:38.272Z,11.46
2023-01-04T10:26:38.298Z,11.54
2023-01-04T10:27:42.693Z,11.42
2023-01-04T10:28:38.336Z,11.52
2023-01-04T10:29:38.357Z,11.43
2023-01-04T10:30:38.386Z,11.54
2023-01-04T10:31:41.594Z,11.44
2023-01-04T10:32:38.450Z,11.51
2023-01-04T10:33:38.467Z,11.61
2023-01-04T10:34:38.473Z,11.57
2023-01-04T10:35:38.495Z,11.57
2023-01-04T10:36:38.531Z,11.64
2023-01-04T10:37:38.538Z,11.64
2023-01-04T10:38:38.564Z,11.69
2023-01-04T10:39:38.596Z,11.73
2023-01-04T10:40:38.605Z,11.75
2023-01-04T10:41:38.629Z,11.70
2023-01-04T10:42:38.656Z,11.73
2023-01-04T10:44:11.204Z,11.82
2023-01-04T10:44:38.697Z,11.83
2023-01-04T10:45:38.723Z,11.85
2023-01-04T10:46:38.819Z,11.82
2023-01-04T10:47:38.783Z,11.82
2023-01-04T10:48:38.787Z,11.94
2023-01-04T10:49:38.811Z,11.96
2023-01-04T10:50:38.840Z,11.90
2023-01-04T10:51:38.856Z,11.98
2023-01-04T10:52:38.882Z,11.95
2023-01-04T10:53:38.902Z,11.98
2023-01-04T10:54:38.922Z,12.01
2023-01-04T10:55:38.950Z,12.01
2023-01-04T10:56:38.969Z,11.95
2023-01-04T10:57:39.023Z,11.99
2023-01-04T10:58:39.031Z,11.99
2023-01-04T10:59:39.037Z,12.10
2023-01-04T11:00:39.116Z,12.02
2023-01-04T11:01:39.368Z,12.01
2023-01-04T11:02:39.318Z,12.04
2023-01-04T11:03:39.231Z,12.01
2023-01-04T11:04:39.163Z,12.09
2023-01-04T11:05:39.182Z,12.12
2023-01-04T11:06:39.193Z,12.12
2023-01-04T11:07:39.228Z,12.12
2023-01-04T11:08:39.238Z,12.14
2023-01-04T11:09:39.293Z,12.10
2023-01-04T11:10:39.287Z,12.12
2023-01-04T11:11:39.311Z,12.09
2023-01-04T11:12:39.331Z,12.13
2023-01-04T11:13:39.358Z,12.16
2023-01-04T11:14:39.378Z,12.17
2023-01-04T11:15:39.404Z,12.19
2023-01-04T11:16:39.428Z,12.27
2023-01-04T11:17:39.447Z,12.20
2023-01-04T11:18:39.472Z,12.19
2023-01-04T11:19:39.495Z,12.28
2023-01-04T11:20:39.524Z,12.27
2023-01-04T11:21:39.540Z,12.20
2023-01-04T11:22:39.610Z,12.21
2023-01-04T11:23:39.582Z,12.31
2023-01-04T11:24:54.165Z,12.24
2023-01-04T11:25:39.629Z,12.21
2023-01-04T11:26:39.658Z,12.28
2023-01-04T11:27:39.680Z,12.13
2023-01-04T11:28:39.702Z,12.14
2023-01-04T11:29:39.724Z,12.31
2023-01-04T11:30:39.753Z,12.20
2023-01-04T11:31:39.838Z,12.24
2023-01-04T11:32:39.787Z,12.19
2023-01-04T11:33:39.813Z,12.21
2023-01-04T11:34:39.833Z,12.16
2023-01-04T11:35:42.584Z,12.19
2023-01-04T11:36:39.884Z,12.23
2023-01-04T11:37:39.907Z,12.14
2023-01-04T11:38:39.937Z,12.21
2023-01-04T11:39:39.951Z,12.20
2023-01-04T11:40:39.971Z,12.17
2023-01-04T11:41:39.993Z,12.27
2023-01-04T11:42:40.023Z,12.14
2023-01-04T11:43:40.072Z,12.32
2023-01-04T11:44:40.060Z,12.29
2023-01-04T11:45:40.111Z,12.28
2023-01-04T11:46:40.108Z,12.29
2023-01-04T11:47:40.161Z,12.31
2023-01-04T11:48:40.154Z,12.27
2023-01-04T11:49:40.189Z,12.23
2023-01-04T11:50:40.234Z,12.29
2023-01-04T11:51:40.235Z,12.28
2023-01-04T11:52:40.253Z,12.32
2023-01-04T11:53:40.277Z,12.31
2023-01-04T11:54:40.290Z,12.29
2023-01-04T11:55:40.311Z,12.28
2023-01-04T11:56:40.346Z,12.31
2023-01-04T11:57:40.365Z,12.31
2023-01-04T11:58:40.383Z,12.28
2023-01-04T11:59:40.417Z,12.29
2023-01-04T12:00:40.432Z,12.29
2023-01-04T12:01:40.528Z,12.35
2023-01-04T12:03:00.936Z,12.34
2023-01-04T12:03:40.512Z,12.38
2023-01-04T12:04:40.532Z,12.38
2023-01-04T12:05:40.541Z,12.45
2023-01-04T12:06:40.561Z,12.42
2023-01-04T12:07:40.586Z,12.42
2023-01-04T12:08:40.612Z,12.42
2023-01-04T12:09:40.637Z,12.42
2023-01-04T12:10:40.655Z,12.45
2023-01-04T12:11:40.682Z,12.45
2023-01-04T12:12:40.700Z,12.50
2023-01-04T12:13:40.726Z,12.38
2023-01-04T12:14:40.746Z,12.52
2023-01-04T12:15:40.769Z,12.45
2023-01-04T12:16:40.790Z,12.50
2023-01-04T12:17:43.332Z,12.41
2023-01-04T12:18:40.837Z,12.42
2023-01-04T12:19:40.868Z,12.45
2023-01-04T12:20:40.893Z,12.37
2023-01-04T12:21:40.931Z,12.41
2023-01-04T12:22:40.929Z,12.41
2023-01-04T12:23:40.960Z,12.41
2023-01-04T12:24:40.977Z,12.49
2023-01-04T12:25:40.997Z,12.49
2023-01-04T12:26:41.023Z,12.41
2023-01-04T12:27:41.045Z,12.45
2023-01-04T12:28:41.075Z,12.45
2023-01-04T12:29:42.087Z,12.41
2023-01-04T12:30:41.117Z,12.45
2023-01-04T12:31:41.143Z,12.49
2023-01-04T12:32:41.190Z,12.47
2023-01-04T12:33:41.182Z,12.54
2023-01-04T12:34:41.242Z,12.57
2023-01-04T12:35:41.234Z,12.52
2023-01-04T12:36:41.276Z,12.49
2023-01-04T12:37:41.275Z,12.49
2023-01-04T12:38:41.298Z,12.57
2023-01-04T12:39:41.323Z,12.53
2023-01-04T12:40:41.340Z,12.67
2023-01-04T12:41:41.372Z,12.60
2023-01-04T12:42:41.391Z,12.65
2023-01-04T12:43:46.799Z,12.56
2023-01-04T12:44:41.439Z,12.53
2023-01-04T12:45:41.486Z,12.68
2023-01-04T12:46:41.517Z,12.57
2023-01-04T12:47:41.504Z,12.62
2023-01-04T12:48:41.536Z,12.64
2023-01-04T12:49:41.550Z,12.64
2023-01-04T12:50:47.829Z,12.60
2023-01-04T12:51:52.083Z,12.65
2023-01-04T12:53:11.136Z,12.65
2023-01-04T12:53:41.648Z,12.62
2023-01-04T12:54:41.668Z,12.64
2023-01-04T12:55:43.800Z,12.57
2023-01-04T12:56:41.714Z,12.60
2023-01-04T12:57:41.739Z,12.65
2023-01-04T12:59:23.149Z,12.57
2023-01-04T12:59:41.776Z,12.59
2023-01-04T13:00:41.802Z,12.59
2023-01-04T13:01:41.954Z,12.56
2023-01-04T13:02:42.172Z,12.60
2023-01-04T13:03:42.024Z,12.65
2023-01-04T13:04:41.894Z,12.60
2023-01-04T13:05:58.180Z,12.62
2023-01-04T13:06:41.950Z,12.62
2023-01-04T13:07:41.965Z,12.62
2023-01-04T13:08:42.010Z,12.67
2023-01-04T13:09:46.397Z,12.62
2023-01-04T13:10:42.093Z,12.60
2023-01-04T13:11:42.056Z,12.67
2023-01-04T13:12:42.091Z,12.59
2023-01-04T13:13:42.100Z,12.60
2023-01-04T13:14:42.131Z,12.60
2023-01-04T13:15:42.154Z,12.60
2023-01-04T13:16:42.205Z,12.59
2023-01-04T13:17:42.196Z,12.67
2023-01-04T13:18:42.224Z,12.64
2023-01-04T13:19:42.239Z,12.65
2023-01-04T13:20:42.276Z,12.60
2023-01-04T13:21:42.289Z,12.67
2023-01-04T13:22:42.310Z,12.65
2023-01-04T13:23:42.335Z,12.67